LiveATC.Net - Listen to live air traffic control over the Internet!


ICAO: KFEP  IATA: FEP   Airport: Albertus Airport
City: Freeport   State/Province: Illinois
Country: United States   Continent: North America
KFEP METAR Weather: KFEP 201015Z AUTO 33007KT 10SM CLR M16/M19 A3054 RMK AO2 T11611188
KFEP Flight Activity (FlightAware)
KFEP Airport Info   (iFlightPlanner)
KFEP VFR Sectional Chart   (iFlightPlanner) 
KFEP IFR Low Altitude Chart   (iFlightPlanner) 
KFEP IFR High Altitude Chart   (iFlightPlanner) 

C77/1C8/KFEP CTAF
Feed Status: UP   Listeners: 0
Listen in your browser - HTML5 player (in browser, HTML5)
Click here to listen with your own player (launches your MP3 player)
Archive Access: C77/1C8/KFEP CTAF
FacilityFrequency
Poplar Grove/Cottonwood/Albertus CTAF122.800

NOTICE

Unauthorized use prohibited. See LiveATC.net Terms of Service


Airport/ARTCC Code
Frequency Search
(e.g., 124.400, 128.75)
Site-wide search
 


Browse Feeds
Top 50 Feeds
HF Oceanic Feeds
Coverage Map
Bad Weather Areas

LiveATC FAQ
Offer LiveATC feed
Contact LiveATC.net
Press Inquiries

LiveATC on iPhone
LiveATC on Android

LiveATC Mobile
(Mobile browser)

ATC Audio Archives
Interesting Recordings

LiveATC Forums


Home Page
About LiveATC.net
Make a Donation
Terms of Use
Privacy Policy

Canadian Air Freqs

AIRMETs/SIGMETs

FAA Airport Status
NAS Status
Arrival Demand


Server Software By:
Icecast.org
Liquidsoap